KCVS

Cannon AFB Airport

Clovis, New Mexico, USA
METAR KCVS 221358Z 26005KT 10SM BKN190 09/06 A3017 RMK AO2A SLP193 T00870060 $
Observed Flight Rules
Oct-22 @ 13:58 UTC (23 minutes ago) Visual Flight Rules
Wind Visibility Clouds
260° at 5 knots 10 miles
  • Broken at 19,000' AGL
Temperatures Readings
Current 9°C / 48°F
Dewpoint 6°C / 43°F
Humidity 82%
Altimeter 30.17" Hg
Pressure 1019.3 hPa
Elevation 1309
METAR KCVS 221358Z 26005KT 10SM BKN190 09/06 A3017 RMK AO2A SLP193 T00870060 $
Observed Flight Rules
Oct-22 @ 13:58 UTC
(23 minutes ago)
VFR
Wind Visibility
260° at 5 knots 10 miles
Clouds
  • Broken at 19,000' AGL
Temperature Dewpoint
9°C / 48°F 6°C / 43°F
Humidity Altimeter Pressure
82% 30.17" Hg 1019.3 hPa